Main page
METAR-TAF:

METAR-TAF

Airports :

Benson, England

RAF Benson

latitude: 51-37N, longitude: 001-05W, elevation: 63 m

Current weather observation

The report was made 21 minutes ago, at 01:50 UTC
Wind 2 kt from the West/Northwest
Temperature 12°C
Humidity 82%
Pressure 995 hPa
Visibility 10 km or more
Broken clouds at a height of 4000 ft
Overcast at a height of 7000 ft

METAR: EGUB 290150Z 29002KT 9999 BKN040 OVC070 12/09 Q0995 BLU

Time: 03:11 (02:11 UTC)

Forecast

The report was made 6 hours and 43 minutes ago, at 19:28 UTC
Forecast valid from 28 at 21 UTC to 29 at 02 UTC
Wind 8 kt from the North
Visibility 10 km or more
Few clouds at a height of 1300 ft
Broken clouds at a height of 1800 ft
Temporary
from 28 at 21 UTC to 29 at 02 UTC
Broken clouds at a height of 1300 ft

TAF: EGUB 281928Z 2821/2902 35008KT 9999 FEW013 BKN018 TEMPO 2821/2902 BKN013

Weather observations and forecasts of more than 4000 airports (METAR and TAF reports).

The available stations are represented by yellow and red dots on the map.

Hover mouse over dot to see the name of the station.

Then click to see weather observations and forecasts.

To change the map : click on the green buttons with a black cross to zoom in, on the green button with a dash to zoom out, or on the green arrows for adjacent maps.


METAR-TAF: